createdAt,value
2023-02-17T00:01:37.043Z,72.90
2023-02-17T00:04:04.960Z,73.10
2023-02-17T00:06:32.979Z,71.80
2023-02-17T00:09:02.167Z,74.80
2023-02-17T00:11:30.250Z,75.00
2023-02-17T00:13:58.161Z,76.00
2023-02-17T00:16:28.105Z,70.70
2023-02-17T00:18:59.037Z,73.00
2023-02-17T00:21:29.635Z,77.30
2023-02-17T00:23:58.838Z,72.60
2023-02-17T00:26:26.871Z,72.70
2023-02-17T00:28:54.844Z,71.20
2023-02-17T00:31:23.981Z,73.40
2023-02-17T00:33:55.860Z,78.30
2023-02-17T00:36:24.989Z,70.50
2023-02-17T00:38:56.269Z,71.10
2023-02-17T00:41:25.959Z,71.10
2023-02-17T00:43:54.071Z,73.50
2023-02-17T00:46:23.348Z,73.20
2023-02-17T00:48:55.773Z,69.50
2023-02-17T00:51:26.077Z,70.80
2023-02-17T00:53:54.577Z,69.70
2023-02-17T00:56:22.444Z,73.30
2023-02-17T00:58:50.329Z,75.00
2023-02-17T01:01:18.262Z,69.20
2023-02-17T01:03:46.216Z,66.50
2023-02-17T01:06:31.487Z,66.40
2023-02-17T01:08:59.867Z,70.00
2023-02-17T01:11:32.839Z,67.00
2023-02-17T01:14:02.526Z,66.70
2023-02-17T01:16:38.708Z,66.20
2023-02-17T01:19:13.100Z,63.30
2023-02-17T01:21:41.038Z,69.00
2023-02-17T01:24:12.933Z,69.00
2023-02-17T01:26:40.940Z,66.20
2023-02-17T01:29:09.161Z,64.60
2023-02-17T01:31:37.776Z,63.40
2023-02-17T01:34:05.955Z,68.30
2023-02-17T01:36:33.926Z,68.20
2023-02-17T01:39:02.016Z,64.90
2023-02-17T01:41:30.638Z,60.90
2023-02-17T01:44:04.893Z,64.70
2023-02-17T01:46:34.609Z,67.90
2023-02-17T01:49:15.642Z,66.10
2023-02-17T01:51:47.761Z,64.20
2023-02-17T01:54:31.735Z,66.10
2023-02-17T01:57:02.080Z,70.40
2023-02-17T01:59:31.602Z,72.20
2023-02-17T02:02:04.753Z,68.30
2023-02-17T02:04:37.605Z,65.90
2023-02-17T02:07:11.065Z,67.20
2023-02-17T02:09:47.314Z,68.30
2023-02-17T02:12:21.663Z,71.50
2023-02-17T02:14:51.610Z,68.50
2023-02-17T02:17:36.755Z,68.70
2023-02-17T02:20:43.080Z,64.90
2023-02-17T02:23:50.097Z,67.00
2023-02-17T02:26:42.595Z,68.40
2023-02-17T02:29:48.183Z,68.00
2023-02-17T02:33:08.582Z,65.00
2023-02-17T02:35:57.714Z,63.80
2023-02-17T02:38:34.281Z,61.50
2023-02-17T02:41:14.066Z,61.80
2023-02-17T02:43:43.194Z,61.80
2023-02-17T02:46:11.245Z,61.70
2023-02-17T02:48:39.845Z,61.10
2023-02-17T02:51:21.615Z,62.50
2023-02-17T02:54:08.675Z,60.30
2023-02-17T02:56:58.769Z,63.40
2023-02-17T03:00:06.020Z,64.40
2023-02-17T03:02:46.174Z,63.20
2023-02-17T03:05:23.484Z,59.80
2023-02-17T03:08:08.712Z,56.50
2023-02-17T03:10:46.504Z,63.20
2023-02-17T03:13:14.990Z,64.60
2023-02-17T03:15:44.524Z,59.70
2023-02-17T03:18:12.551Z,56.90
2023-02-17T03:20:50.968Z,58.40
2023-02-17T03:23:19.973Z,58.00
2023-02-17T03:25:47.859Z,58.50
2023-02-17T03:28:15.863Z,60.10
2023-02-17T03:30:44.359Z,57.90
2023-02-17T03:33:12.319Z,57.60
2023-02-17T03:35:40.840Z,55.50
2023-02-17T03:38:08.709Z,57.70
2023-02-17T03:40:37.490Z,55.40
2023-02-17T03:43:05.393Z,55.60
2023-02-17T03:45:36.969Z,51.90
2023-02-17T03:48:05.019Z,52.40
2023-02-17T03:50:32.908Z,55.40
2023-02-17T03:53:00.773Z,55.40
2023-02-17T03:55:28.649Z,56.80
2023-02-17T03:57:56.610Z,52.80
2023-02-17T04:00:24.766Z,51.80
2023-02-17T04:02:52.683Z,53.40
2023-02-17T04:05:21.116Z,54.60
2023-02-17T04:07:51.804Z,54.00
2023-02-17T04:10:19.860Z,56.30
2023-02-17T04:13:34.073Z,53.80
2023-02-17T04:16:05.791Z,52.30
2023-02-17T04:18:38.413Z,74.20
2023-02-17T04:21:06.895Z,92.50
2023-02-17T04:23:37.260Z,66.40
2023-02-17T04:26:06.846Z,57.40
2023-02-17T04:28:39.451Z,57.40
2023-02-17T04:31:07.528Z,53.10
2023-02-17T04:33:35.711Z,57.60
2023-02-17T04:36:05.178Z,59.60
2023-02-17T04:38:33.927Z,56.20
2023-02-17T04:41:02.279Z,62.60
2023-02-17T04:43:30.657Z,93.10
2023-02-17T04:45:59.400Z,97.40
2023-02-17T04:48:27.392Z,69.60
2023-02-17T04:50:55.411Z,56.50
2023-02-17T04:53:23.683Z,56.20
2023-02-17T04:55:53.524Z,53.00
2023-02-17T04:58:21.834Z,51.90
2023-02-17T05:00:50.930Z,53.00
2023-02-17T05:03:19.192Z,53.70
2023-02-17T05:05:47.570Z,52.70
2023-02-17T05:08:16.050Z,54.90
2023-02-17T05:10:44.009Z,62.90
2023-02-17T05:13:11.933Z,67.60
2023-02-17T05:15:39.865Z,54.90
2023-02-17T05:18:07.857Z,66.40
2023-02-17T05:20:35.784Z,66.50
2023-02-17T05:23:03.776Z,59.80
2023-02-17T05:25:31.983Z,51.60
2023-02-17T05:27:59.926Z,50.20
2023-02-17T05:30:28.856Z,51.90
2023-02-17T05:32:56.919Z,51.30
2023-02-17T05:35:24.984Z,52.20
2023-02-17T05:37:52.885Z,51.50
2023-02-17T05:40:20.935Z,51.10
2023-02-17T05:42:48.832Z,46.40
2023-02-17T05:45:17.301Z,50.40
2023-02-17T05:47:45.552Z,50.10
2023-02-17T05:50:14.019Z,52.40
2023-02-17T05:52:42.056Z,52.00
2023-02-17T05:55:10.082Z,52.60
2023-02-17T05:57:38.032Z,51.20
2023-02-17T06:00:06.785Z,54.10
2023-02-17T06:02:40.360Z,59.40
2023-02-17T06:05:08.670Z,57.50
2023-02-17T06:07:36.616Z,63.70
2023-02-17T06:10:05.259Z,62.20
2023-02-17T06:12:33.141Z,57.00
2023-02-17T06:15:01.068Z,54.00
2023-02-17T06:17:32.181Z,54.90
2023-02-17T06:20:00.182Z,52.90
2023-02-17T06:22:28.554Z,53.50
2023-02-17T06:24:56.469Z,55.30
2023-02-17T06:27:24.639Z,49.40
2023-02-17T06:29:52.728Z,47.90
2023-02-17T06:32:20.686Z,53.00
2023-02-17T06:34:48.746Z,47.60
2023-02-17T06:37:17.301Z,49.50
2023-02-17T06:39:45.255Z,48.20
2023-02-17T06:42:13.581Z,48.30
2023-02-17T06:44:41.508Z,48.00
2023-02-17T06:47:09.938Z,51.00
2023-02-17T06:49:40.404Z,48.90
2023-02-17T06:52:08.737Z,50.70
2023-02-17T06:54:36.710Z,50.30
2023-02-17T06:57:04.744Z,47.20
2023-02-17T06:59:34.185Z,48.70
2023-02-17T07:02:02.740Z,49.60
2023-02-17T07:04:35.243Z,49.90
2023-02-17T07:07:03.303Z,48.30
2023-02-17T07:09:31.241Z,46.80
2023-02-17T07:11:59.228Z,46.80
2023-02-17T07:14:28.120Z,45.40
2023-02-17T07:16:56.140Z,46.90
2023-02-17T07:19:24.627Z,48.30
2023-02-17T07:21:52.837Z,48.60
2023-02-17T07:24:20.880Z,46.80
2023-02-17T07:26:49.024Z,45.10
2023-02-17T07:29:17.004Z,47.00
2023-02-17T07:31:44.965Z,44.20
2023-02-17T07:34:12.959Z,46.50
2023-02-17T07:36:40.974Z,51.50
2023-02-17T07:39:08.895Z,53.90
2023-02-17T07:41:36.975Z,52.70
2023-02-17T07:44:10.167Z,48.70
2023-02-17T07:46:39.876Z,47.70
2023-02-17T07:49:08.415Z,48.80
2023-02-17T07:51:36.381Z,58.80
2023-02-17T07:54:04.799Z,79.30
2023-02-17T07:56:34.070Z,76.40
2023-02-17T07:59:02.083Z,66.50
2023-02-17T08:01:30.050Z,50.50
2023-02-17T08:03:58.061Z,54.70
2023-02-17T08:06:26.694Z,48.20
2023-02-17T08:09:22.585Z,45.20
2023-02-17T08:12:09.666Z,47.00
2023-02-17T08:14:40.505Z,45.90
2023-02-17T08:17:08.948Z,42.10
2023-02-17T08:19:47.489Z,41.70
2023-02-17T08:22:17.616Z,41.10
2023-02-17T08:24:47.388Z,44.20
2023-02-17T08:27:16.101Z,44.80
2023-02-17T08:29:44.966Z,42.20
2023-02-17T08:32:15.111Z,43.30
2023-02-17T08:34:43.154Z,42.00
2023-02-17T08:37:11.735Z,43.20
2023-02-17T08:39:39.835Z,42.30
2023-02-17T08:42:07.855Z,43.00
2023-02-17T08:44:37.303Z,38.40
2023-02-17T08:47:07.217Z,38.00
2023-02-17T08:49:35.935Z,37.80
2023-02-17T08:52:04.370Z,38.80
2023-02-17T08:54:32.771Z,36.10
2023-02-17T08:57:00.853Z,37.90
2023-02-17T08:59:29.275Z,40.20
2023-02-17T09:01:57.710Z,40.80
2023-02-17T09:04:26.001Z,41.70
2023-02-17T09:06:56.894Z,39.30
2023-02-17T09:09:27.029Z,39.20
2023-02-17T09:11:58.740Z,36.00
2023-02-17T09:14:27.019Z,35.40
2023-02-17T09:16:55.942Z,35.90
2023-02-17T09:19:24.657Z,36.00
2023-02-17T09:21:52.768Z,37.50
2023-02-17T09:24:20.754Z,37.00
2023-02-17T09:26:48.800Z,36.50
2023-02-17T09:29:16.740Z,39.60
2023-02-17T09:31:46.633Z,39.90
2023-02-17T09:34:15.071Z,47.40
2023-02-17T09:36:43.270Z,47.20
2023-02-17T09:39:13.811Z,48.50
2023-02-17T09:41:47.872Z,40.80
2023-02-17T09:44:22.006Z,41.10
2023-02-17T09:47:08.259Z,39.40
2023-02-17T09:49:44.952Z,39.60
2023-02-17T09:52:41.427Z,35.90
2023-02-17T09:55:23.357Z,43.10
2023-02-17T09:58:14.024Z,43.60
2023-02-17T10:00:46.870Z,41.50
2023-02-17T10:03:58.861Z,42.50
2023-02-17T10:06:36.406Z,42.30
2023-02-17T10:09:12.914Z,40.40
2023-02-17T10:12:01.437Z,39.30
2023-02-17T10:15:00.721Z,39.70
2023-02-17T10:17:29.226Z,43.00
2023-02-17T10:20:29.011Z,44.90
2023-02-17T10:23:07.337Z,39.80
2023-02-17T10:25:52.167Z,40.20
2023-02-17T10:29:05.054Z,42.50
2023-02-17T10:31:46.789Z,39.10
2023-02-17T10:34:57.736Z,37.10
2023-02-17T10:37:58.964Z,36.40
2023-02-17T10:40:29.270Z,36.20
2023-02-17T10:43:06.316Z,34.80
2023-02-17T10:45:48.047Z,29.40
2023-02-17T10:51:30.512Z,30.70
2023-02-17T10:54:13.976Z,34.60
2023-02-17T10:56:48.234Z,32.70
2023-02-17T10:59:31.166Z,28.40
2023-02-17T11:02:17.105Z,30.00
2023-02-17T11:04:51.331Z,28.70
2023-02-17T11:07:51.773Z,30.40
2023-02-17T11:10:28.410Z,28.80
2023-02-17T11:12:58.782Z,31.10
2023-02-17T11:15:30.755Z,27.40
2023-02-17T11:18:01.649Z,31.30
2023-02-17T11:20:35.247Z,28.30
2023-02-17T11:23:15.838Z,27.30
2023-02-17T11:25:54.765Z,28.90
2023-02-17T11:28:24.991Z,28.10
2023-02-17T11:30:59.130Z,25.80
2023-02-17T11:33:39.416Z,25.20
2023-02-17T11:36:11.382Z,26.30
2023-02-17T11:38:39.258Z,27.10
2023-02-17T11:41:08.844Z,26.90
2023-02-17T11:43:54.321Z,28.20
2023-02-17T11:46:45.168Z,32.90
2023-02-17T11:49:41.243Z,27.70
2023-02-17T11:52:31.864Z,26.60
2023-02-17T11:55:23.651Z,27.70
2023-02-17T11:58:04.875Z,27.60
2023-02-17T12:00:49.708Z,25.10
2023-02-17T12:03:52.799Z,28.60
2023-02-17T12:06:40.522Z,35.20
2023-02-17T12:09:24.284Z,45.20
2023-02-17T12:12:18.444Z,68.00
2023-02-17T12:15:25.552Z,50.50
2023-02-17T12:18:32.866Z,31.30
2023-02-17T12:21:16.202Z,26.10
2023-02-17T12:24:02.565Z,25.60
2023-02-17T12:26:42.158Z,27.50
2023-02-17T12:29:10.078Z,25.10
2023-02-17T12:31:56.750Z,26.00
2023-02-17T12:35:04.692Z,42.00
2023-02-17T12:37:40.581Z,31.50
2023-02-17T12:40:48.919Z,26.30
2023-02-17T12:43:30.476Z,29.60
2023-02-17T12:46:00.592Z,32.00
2023-02-17T12:49:01.647Z,25.40
2023-02-17T12:51:39.450Z,25.20
2023-02-17T12:54:34.655Z,28.20
2023-02-17T12:59:45.360Z,24.60
2023-02-17T13:02:25.722Z,32.60
2023-02-17T13:04:59.366Z,27.50
2023-02-17T13:08:17.707Z,25.80
2023-02-17T13:10:45.882Z,33.60
2023-02-17T13:13:44.887Z,29.30
2023-02-17T13:16:19.437Z,27.70
2023-02-17T13:18:50.607Z,24.70
2023-02-17T13:21:28.695Z,25.50
2023-02-17T13:24:09.014Z,28.40
2023-02-17T13:26:42.169Z,24.90
2023-02-17T13:29:25.556Z,23.30
2023-02-17T13:31:56.312Z,29.30
2023-02-17T13:34:28.795Z,37.20
2023-02-17T13:36:57.787Z,127.40
2023-02-17T13:39:30.644Z,29.80
2023-02-17T13:42:02.621Z,33.90
2023-02-17T13:44:40.747Z,36.40
2023-02-17T13:47:38.256Z,27.60
2023-02-17T13:50:10.691Z,27.50
2023-02-17T13:52:43.152Z,26.30
2023-02-17T14:08:42.328Z,20.40
2023-02-17T14:11:22.066Z,25.10
2023-02-17T14:13:54.982Z,24.00
2023-02-17T14:16:41.228Z,22.80
2023-02-17T14:19:16.954Z,24.50
2023-02-17T14:22:20.064Z,62.00
2023-02-17T14:25:04.241Z,60.00
2023-02-17T14:27:50.286Z,36.20
2023-02-17T14:30:35.424Z,24.90
2023-02-17T14:33:16.315Z,23.00
2023-02-17T14:35:55.070Z,22.70
2023-02-17T14:38:59.064Z,21.50
2023-02-17T14:41:27.501Z,21.30
2023-02-17T14:43:55.695Z,23.60
2023-02-17T14:46:24.119Z,28.00
2023-02-17T14:48:52.961Z,24.90
2023-02-17T14:51:22.958Z,23.80
2023-02-17T14:53:52.071Z,22.20
2023-02-17T14:56:26.279Z,23.10
2023-02-17T14:58:55.825Z,18.90
2023-02-17T15:01:25.677Z,22.60
2023-02-17T15:03:57.002Z,22.20
2023-02-17T15:06:30.710Z,21.60
2023-02-17T15:09:04.511Z,22.80
2023-02-17T15:11:36.989Z,22.40
2023-02-17T15:14:06.436Z,24.30
2023-02-17T15:16:37.548Z,24.60
2023-02-17T15:19:12.229Z,33.90
2023-02-17T15:21:46.051Z,30.50
2023-02-17T15:24:21.072Z,29.10
2023-02-17T15:26:49.723Z,30.70
2023-02-17T15:29:21.980Z,29.10
2023-02-17T15:31:52.599Z,25.80
2023-02-17T15:34:24.459Z,29.50
2023-02-17T15:36:52.659Z,30.40
2023-02-17T15:39:22.704Z,30.60
2023-02-17T15:41:53.733Z,30.80
2023-02-17T15:44:41.232Z,28.70
2023-02-17T15:47:16.112Z,34.10
2023-02-17T15:49:44.012Z,35.40
2023-02-17T15:52:13.712Z,38.70
2023-02-17T15:54:43.464Z,34.60
2023-02-17T15:57:24.395Z,44.00
2023-02-17T15:59:55.426Z,49.60
2023-02-17T16:02:26.066Z,45.90
2023-02-17T16:04:54.088Z,48.30
2023-02-17T16:07:22.392Z,46.50
2023-02-17T16:09:50.752Z,38.00
2023-02-17T16:12:27.344Z,39.30
2023-02-17T16:14:57.255Z,35.30
2023-02-17T16:17:26.067Z,34.80
2023-02-17T16:19:54.279Z,29.10
2023-02-17T16:22:22.544Z,29.20
2023-02-17T16:24:50.500Z,29.60
2023-02-17T16:27:18.606Z,26.80
2023-02-17T16:29:46.692Z,38.00
2023-02-17T16:32:14.705Z,30.30
2023-02-17T16:34:44.840Z,30.30
2023-02-17T16:37:17.436Z,22.60
2023-02-17T16:39:46.024Z,25.40
2023-02-17T16:42:15.553Z,23.50
2023-02-17T16:44:44.308Z,19.60
2023-02-17T16:47:25.565Z,20.80
2023-02-17T16:49:53.673Z,24.00
2023-02-17T16:52:28.175Z,24.00
2023-02-17T16:57:32.337Z,22.00
2023-02-17T17:00:22.377Z,21.60
2023-02-17T17:02:50.934Z,24.20
2023-02-17T17:05:20.202Z,21.10
2023-02-17T17:07:48.187Z,22.70
2023-02-17T17:10:23.485Z,22.00
2023-02-17T17:12:51.435Z,22.10
2023-02-17T17:15:19.584Z,23.40
2023-02-17T17:18:05.751Z,18.00
2023-02-17T17:31:20.280Z,14.90
2023-02-17T17:33:49.454Z,16.90
2023-02-17T17:36:36.054Z,16.40
2023-02-17T17:39:06.674Z,15.10
2023-02-17T17:41:35.105Z,15.10
2023-02-17T17:44:03.340Z,15.90
2023-02-17T17:46:37.504Z,14.60
2023-02-17T17:49:09.139Z,16.00
2023-02-17T17:51:39.237Z,15.00
2023-02-17T17:54:08.174Z,17.70
2023-02-17T17:56:39.437Z,14.90
2023-02-17T17:59:07.447Z,15.30
2023-02-17T18:01:35.588Z,16.10
2023-02-17T18:04:04.692Z,15.60
2023-02-17T18:06:41.925Z,14.90
2023-02-17T18:09:25.840Z,15.70
2023-02-17T18:12:03.081Z,14.30
2023-02-17T18:14:32.098Z,15.50
2023-02-17T18:17:00.259Z,18.10
2023-02-17T18:19:30.636Z,16.40
2023-02-17T18:21:58.604Z,14.90
2023-02-17T18:24:26.737Z,15.40
2023-02-17T18:26:55.195Z,16.70
2023-02-17T18:29:23.378Z,18.20
2023-02-17T18:31:51.388Z,15.90
2023-02-17T18:34:19.434Z,14.90
2023-02-17T18:36:47.397Z,16.50
2023-02-17T18:39:15.550Z,19.20
2023-02-17T18:41:44.653Z,16.30
2023-02-17T18:44:13.955Z,18.50
2023-02-17T18:46:42.647Z,15.90
2023-02-17T18:49:17.425Z,15.60
2023-02-17T18:51:45.918Z,16.90
2023-02-17T18:54:14.822Z,15.10
2023-02-17T18:56:42.779Z,14.70
2023-02-17T18:59:10.721Z,17.30
2023-02-17T19:01:40.966Z,16.20
2023-02-17T19:04:09.901Z,15.20
2023-02-17T19:06:37.803Z,15.60
2023-02-17T19:09:06.493Z,16.90
2023-02-17T19:11:35.088Z,14.90
2023-02-17T19:14:04.237Z,14.10
2023-02-17T19:16:33.446Z,14.10
2023-02-17T19:19:01.995Z,15.30
2023-02-17T19:21:30.828Z,14.20
2023-02-17T19:23:58.982Z,14.70
2023-02-17T19:26:26.948Z,13.90
2023-02-17T19:28:54.968Z,13.80
2023-02-17T19:31:23.395Z,15.90
2023-02-17T19:33:51.421Z,12.70
2023-02-17T19:36:23.722Z,13.40
2023-02-17T19:38:51.677Z,17.10
2023-02-17T19:41:19.856Z,14.10
2023-02-17T19:43:47.740Z,14.00
2023-02-17T19:46:19.932Z,13.70
2023-02-17T19:48:47.885Z,15.10
2023-02-17T19:51:15.850Z,14.90
2023-02-17T19:53:44.362Z,15.40
2023-02-17T19:56:14.024Z,14.80
2023-02-17T19:58:44.024Z,14.40
2023-02-17T20:01:16.083Z,14.60
2023-02-17T20:03:44.724Z,14.20
2023-02-17T20:06:21.130Z,14.80
2023-02-17T20:08:59.394Z,13.10
2023-02-17T20:11:28.817Z,13.80
2023-02-17T20:13:59.077Z,15.90
2023-02-17T20:16:28.633Z,15.90
2023-02-17T20:18:57.570Z,15.10
2023-02-17T20:21:28.315Z,16.10
2023-02-17T20:23:57.742Z,16.80
2023-02-17T20:26:32.510Z,18.30
2023-02-17T20:29:02.046Z,20.20
2023-02-17T20:31:30.440Z,16.90
2023-02-17T20:34:04.015Z,19.60
2023-02-17T20:36:32.254Z,16.70
2023-02-17T20:39:00.441Z,16.70
2023-02-17T20:41:28.491Z,15.70
2023-02-17T20:43:59.556Z,17.40
2023-02-17T20:46:32.028Z,20.50
2023-02-17T20:48:59.931Z,25.00
2023-02-17T20:51:27.924Z,23.80
2023-02-17T20:53:55.804Z,19.40
2023-02-17T20:56:25.090Z,23.40
2023-02-17T20:58:53.424Z,22.40
2023-02-17T21:01:21.346Z,24.30
2023-02-17T21:03:49.427Z,24.70
2023-02-17T21:06:20.568Z,23.20
2023-02-17T21:08:51.865Z,18.20
2023-02-17T21:11:20.094Z,22.40
2023-02-17T21:13:48.087Z,25.40
2023-02-17T21:16:21.098Z,18.20
2023-02-17T21:18:49.292Z,16.10
2023-02-17T21:21:18.023Z,16.60
2023-02-17T21:23:48.792Z,17.90
2023-02-17T21:26:18.076Z,16.70
2023-02-17T21:28:47.030Z,18.30
2023-02-17T21:31:15.974Z,20.80
2023-02-17T21:33:44.211Z,16.50
2023-02-17T21:36:14.973Z,17.10
2023-02-17T21:38:43.130Z,18.40
2023-02-17T21:41:18.485Z,19.00
2023-02-17T21:44:06.590Z,16.10
2023-02-17T21:46:37.534Z,18.60
2023-02-17T21:49:05.514Z,15.60
2023-02-17T21:51:33.465Z,14.70
2023-02-17T21:54:01.446Z,15.90
2023-02-17T21:56:29.413Z,14.30
2023-02-17T21:58:57.522Z,11.80
2023-02-17T22:01:27.408Z,15.50
2023-02-17T22:03:55.976Z,14.60
2023-02-17T22:06:28.009Z,15.90
2023-02-17T22:08:57.532Z,13.40
2023-02-17T22:11:31.103Z,16.40
2023-02-17T22:14:01.888Z,15.30
2023-02-17T22:16:31.987Z,16.70
2023-02-17T22:19:00.616Z,14.80
2023-02-17T22:21:29.315Z,16.00
2023-02-17T22:23:58.976Z,12.20
2023-02-17T22:26:28.718Z,13.20
2023-02-17T22:28:57.504Z,10.80
2023-02-17T22:31:27.997Z,10.70
2023-02-17T22:33:57.332Z,10.60
2023-02-17T22:36:27.571Z,12.10
2023-02-17T22:38:55.583Z,11.10
2023-02-17T22:41:25.511Z,13.00
2023-02-17T22:43:54.446Z,12.20
2023-02-17T22:46:25.776Z,10.70
2023-02-17T22:48:55.825Z,11.70
2023-02-17T22:51:28.073Z,12.30
2023-02-17T22:53:56.311Z,12.10
2023-02-17T22:56:24.340Z,12.40
2023-02-17T22:58:56.559Z,12.70
2023-02-17T23:01:25.464Z,10.80
2023-02-17T23:03:54.792Z,10.80
2023-02-17T23:06:27.498Z,11.10
2023-02-17T23:08:56.472Z,11.40
2023-02-17T23:11:47.637Z,11.10
2023-02-17T23:14:37.096Z,12.50
2023-02-17T23:17:07.633Z,10.70
2023-02-17T23:19:36.412Z,9.70
2023-02-17T23:22:10.963Z,11.00
2023-02-17T23:24:38.861Z,10.30
2023-02-17T23:27:06.790Z,10.80
2023-02-17T23:29:34.971Z,11.90
2023-02-17T23:32:02.845Z,11.30
2023-02-17T23:34:30.894Z,13.60
2023-02-17T23:36:59.487Z,12.30
2023-02-17T23:39:27.624Z,12.00
2023-02-17T23:41:55.746Z,13.10
2023-02-17T23:44:23.615Z,11.30
2023-02-17T23:46:52.065Z,11.80
2023-02-17T23:49:19.939Z,10.30
2023-02-17T23:51:47.946Z,10.60
2023-02-17T23:54:15.984Z,11.00
2023-02-17T23:56:44.216Z,12.00
2023-02-17T23:59:12.366Z,9.80
